x

Nickerson Bank (44251) Wave Buoy

9:00pm - Fri 30th Jan 2015 All times are UTC.

  • Sig Wave height 7.9ft
  • Peak Period 11s
  • Wind
    25mph, 31mph gusts
  • Sea Temp 37°f
  • Air Temp 35°f
  • Sea Pressure 999.4mb

More Historic Weather Station data

Upgrade to MSW Pro to gain access to the past 30 days of data for over 8000 Wavebouys and Weather Stations around the globe.

Join Pro

Comparision Forecast

View Surf forecast
   
Fri 01/30 9:00pm 8ft 11s 25 31 mph 999.4mb 37f 35f
8:00pm 9ft 8s 11 13 mph 998.6mb 37f 37f
7:00pm 10ft 10s 9 11 mph 998.6mb 37f 37f
6:00pm 10ft 8s 16 20 mph 999.3mb 37f 35f
5:00pm 11ft 8s 20 22 mph 1000.1mb 37f 35f
3:00pm 11ft 7s 2
mph
1003.2mb 37f 33f
2:00pm 11ft 8s 2
mph
1004.8mb 37f 33f
1:00pm 11ft 7s 2
mph
1006mb 37f 32f
12:00pm 10ft 7s 2
mph
1008.4mb 37f 32f
10:00am  -   -  4
mph
1011.6mb - 31f
8:00am 9ft 10s 16 18 mph 1014.6mb 37f 31f
7:00am 9ft 10s 34 40 mph 1014.3mb 37f 31f
6:00am 9ft 11s 31 38 mph 1015.8mb 37f 31f
5:00am 9ft 10s 29 36 mph 1017.2mb 37f 31f
4:00am 9ft 12s 29 36 mph 1018.2mb 37f 33f
3:00am 9ft 11s 25 29 mph 1019mb 37f 34f
2:00am 9.5ft 10s 18 20 mph 1019.5mb 37f 34f
1:00am 9ft 12s 13 16 mph 1019.9mb 37f 34f
12:00am 10ft 11s 7 11 mph 1019.9mb 37f 33f
Thu 01/29 11:00pm 10ft 12s 2 4 mph 1020.3mb 37f 33f
10:00pm 9.5ft 11s 4 7 mph 1019.6mb 37f 33f
9:00pm 11ft 11s 11 13 mph 1019.2mb 37f 33f
8:00pm 11ft 12s 13 16 mph 1018.4mb 38f 33f
7:00pm 10ft 12s 13 18 mph 1018.1mb 38f 33f
6:00pm 11ft 12s 13 16 mph 1017.6mb 38f 34f
5:00pm 12ft 12s 13 18 mph 1017.3mb 38f 34f
4:00pm 11ft 12s 18 20 mph 1017.5mb 37f 34f
3:00pm 11.5ft 12s 16 18 mph 1017.6mb 37f 35f
2:00pm 11ft 12s 18 25 mph 1017mb 37f 35f
1:00pm 11.5ft 11s 13 18 mph 1016.4mb 37f 35f
12:00pm 11ft 11s 18 20 mph 1015.7mb 37f 37f
11:00am 11ft 12s 13 18 mph 1014.1mb 37f 36f
10:00am 12ft 12s 11 16 mph 1013.3mb 37f 35f
9:00am 11.5ft 12s 9 11 mph 1012.4mb 37f 35f
8:00am 11ft 13s 9 11 mph 1012.3mb 37f 36f
7:00am 11ft 12s 11 13 mph 1011.5mb 37f 36f
6:00am 11ft 13s 13 16 mph 1010.7mb 37f 36f
5:00am 11ft 12s 9 13 mph 1009.8mb 37f 35f
4:00am 11.5ft 13s 9 13 mph 1009.1mb 37f 34f
3:00am 12.5ft 13s 11 13 mph 1008.6mb 37f 35f
2:00am 13ft 12s 13 16 mph 1008mb 37f 37f
1:00am 12ft 11s 9 11 mph 1007.2mb 37f 37f
12:00am 11ft 11s 9 11 mph 1006.9mb 37f 38f
Wed 01/28 11:00pm 11ft 11s 9 11 mph 1007mb 37f 38f
10:00pm 11ft 12s 11 13 mph 1006.9mb 37f 38f
9:00pm 11ft 10s 4 7 mph 1006.9mb 37f 37f
8:00pm 11ft 10s 9 11 mph 1006.9mb 37f 38f
7:00pm 10.5ft 10s 4 9 mph 1008mb 37f 39f
6:00pm 11ft 10s 7 9 mph 1008.2mb 37f 39f
5:00pm 11ft 10s 9 13 mph 1008.3mb 37f 39f
4:00pm 12ft 10s 9 13 mph 1008.6mb 37f 38f
3:00pm 11ft 8s 11 13 mph 1008.8mb 37f 38f
2:00pm 10ft 8s 13 16 mph 1008.4mb 37f 38f
1:00pm 10ft 8s 18 22 mph 1008.4mb 37f 40f
12:00pm 10ft 9s 20 22 mph 1007.5mb 37f 39f
11:00am 9.5ft 9s 18 22 mph 1005.8mb 37f 40f
10:00am 10ft 9s 20 25 mph 1005.9mb 36f 40f
9:00am 10ft 8s 16 20 mph 1005.6mb 37f 41f
8:00am 11ft 10s 13 16 mph 1005.5mb 37f 42f
7:00am 10.5ft 10s 20 22 mph 1005.7mb 37f 44f
6:00am 10.5ft 9s 16 27 mph 1005.9mb 37f 40f
5:00am 12ft 9s 20 22 mph 1005.5mb 37f 41f
4:00am 12ft 10s 20 22 mph 1006.8mb 37f 40f
3:00am 13ft 10s 9 11 mph 1008mb 37f 39f
2:00am 13.5ft 9s 11 20 mph 1008.8mb 37f 38f
1:00am 13ft 9s 18 22 mph 1010mb 37f 36f
12:00am 13.5ft 9s 20 25 mph 1011mb 37f 35f
Tue 01/27 11:00pm 13.5ft 8s 27 34 mph 1012.3mb 37f 34f
10:00pm 14ft 8s 31 38 mph 1013.5mb 37f 33f
9:00pm 12.5ft 8s 36 43 mph 1014mb 37f 33f
8:00pm 12ft 7s 38 47 mph 1015.2mb 37f 32f
6:00pm 9.5ft 6s 36 45 mph 1019.5mb 37f 31f
5:00pm 9ft 5s 34 40 mph 1023.4mb 37f 31f
4:00pm 9ft 10s 29 38 mph 1025.6mb 37f 30f
3:00pm 8.5ft 11s 29 36 mph 1027.2mb 37f 29f
2:00pm 8ft 10s 27 31 mph 1029.8mb 37f 29f
1:00pm 8ft 11s 25 29 mph 1030.6mb 36f 28f
12:00pm 9ft 11s 20 25 mph 1030.8mb 36f 27f
11:00am 9ft 10s 13 18 mph 1031.9mb 37f 26f
10:00am 10.5ft 11s 11 16 mph 1030.5mb 36f 26f
9:00am 11.5ft 10s 9 13 mph 1030.7mb 36f 26f
8:00am 11.5ft 12s 4 9 mph 1031.4mb 36f 26f
7:00am 12.5ft 10s 9 13 mph 1030.7mb 36f 26f
6:00am 13ft 12s 9 13 mph 1030.3mb 36f 27f
5:00am 12ft 12s 13 18 mph 1029.5mb 36f 27f
4:00am 12.5ft 12s 18 22 mph 1028.5mb 36f 27f
3:00am 13ft 12s 18 22 mph 1027.7mb 36f 27f
2:00am 13ft 12s 16 20 mph 1026.8mb 36f 27f
1:00am 14.5ft 13s 18 25 mph 1026.6mb 36f 27f
12:00am 13.5ft 13s 20 29 mph 1025.4mb 37f 27f
Mon 01/26 11:00pm 14.5ft 14s 22 29 mph 1024.4mb 37f 27f